sensor_id;sensor_type;location;lat;lon;timestamp;P1;durP1;ratioP1;P2;durP2;ratioP2
21032;SDS011;10675;47.976;7.824;2023-07-20T00:01:02;7.25;;;2.00;;
21032;SDS011;10675;47.976;7.824;2023-07-20T00:03:27;5.93;;;2.08;;
21032;SDS011;10675;47.976;7.824;2023-07-20T00:05:53;2.58;;;1.90;;
21032;SDS011;10675;47.976;7.824;2023-07-20T00:08:18;2.92;;;1.75;;
21032;SDS011;10675;47.976;7.824;2023-07-20T00:10:44;2.00;;;1.80;;
21032;SDS011;10675;47.976;7.824;2023-07-20T00:13:10;5.90;;;2.13;;
21032;SDS011;10675;47.976;7.824;2023-07-20T00:15:36;3.00;;;1.75;;
21032;SDS011;10675;47.976;7.824;2023-07-20T00:18:02;4.00;;;2.10;;
21032;SDS011;10675;47.976;7.824;2023-07-20T00:20:31;2.20;;;2.00;;
21032;SDS011;10675;47.976;7.824;2023-07-20T00:22:57;6.15;;;2.10;;
21032;SDS011;10675;47.976;7.824;2023-07-20T00:25:23;3.38;;;2.20;;
21032;SDS011;10675;47.976;7.824;2023-07-20T00:27:49;2.88;;;2.03;;
21032;SDS011;10675;47.976;7.824;2023-07-20T00:30:15;2.45;;;1.98;;
21032;SDS011;10675;47.976;7.824;2023-07-20T00:32:41;3.20;;;2.10;;
21032;SDS011;10675;47.976;7.824;2023-07-20T00:35:07;2.80;;;1.90;;
21032;SDS011;10675;47.976;7.824;2023-07-20T00:37:33;2.08;;;1.95;;
21032;SDS011;10675;47.976;7.824;2023-07-20T00:39:59;3.75;;;2.35;;
21032;SDS011;10675;47.976;7.824;2023-07-20T00:42:24;3.33;;;1.80;;
21032;SDS011;10675;47.976;7.824;2023-07-20T00:44:50;6.43;;;1.67;;
21032;SDS011;10675;47.976;7.824;2023-07-20T00:47:15;2.08;;;1.85;;
21032;SDS011;10675;47.976;7.824;2023-07-20T00:49:41;2.63;;;1.73;;
21032;SDS011;10675;47.976;7.824;2023-07-20T00:52:07;5.32;;;2.03;;
21032;SDS011;10675;47.976;7.824;2023-07-20T00:54:35;6.03;;;1.75;;
21032;SDS011;10675;47.976;7.824;2023-07-20T00:57:02;2.63;;;1.88;;
21032;SDS011;10675;47.976;7.824;2023-07-20T00:59:29;7.53;;;2.15;;
21032;SDS011;10675;47.976;7.824;2023-07-20T01:01:54;3.28;;;1.77;;
21032;SDS011;10675;47.976;7.824;2023-07-20T01:04:20;1.98;;;1.77;;
21032;SDS011;10675;47.976;7.824;2023-07-20T01:12:26;3.38;;;2.00;;
21032;SDS011;10675;47.976;7.824;2023-07-20T01:14:57;2.20;;;2.00;;
21032;SDS011;10675;47.976;7.824;2023-07-20T01:17:23;2.30;;;1.80;;
21032;SDS011;10675;47.976;7.824;2023-07-20T01:19:49;6.45;;;1.80;;
21032;SDS011;10675;47.976;7.824;2023-07-20T01:33:11;2.03;;;1.83;;
21032;SDS011;10675;47.976;7.824;2023-07-20T01:35:39;2.50;;;1.83;;
21032;SDS011;10675;47.976;7.824;2023-07-20T01:38:08;1.83;;;1.73;;
21032;SDS011;10675;47.976;7.824;2023-07-20T01:40:36;2.35;;;1.88;;
21032;SDS011;10675;47.976;7.824;2023-07-20T01:43:02;4.25;;;1.70;;
21032;SDS011;10675;47.976;7.824;2023-07-20T01:45:28;3.80;;;2.20;;
21032;SDS011;10675;47.976;7.824;2023-07-20T01:47:53;2.25;;;1.75;;
21032;SDS011;10675;47.976;7.824;2023-07-20T01:50:19;2.90;;;1.90;;
21032;SDS011;10675;47.976;7.824;2023-07-20T01:52:44;4.88;;;1.65;;
21032;SDS011;10675;47.976;7.824;2023-07-20T01:55:10;2.40;;;1.73;;
21032;SDS011;10675;47.976;7.824;2023-07-20T01:57:35;2.25;;;1.95;;
21032;SDS011;10675;47.976;7.824;2023-07-20T02:00:01;2.35;;;2.15;;
21032;SDS011;10675;47.976;7.824;2023-07-20T02:02:27;5.15;;;2.05;;
21032;SDS011;10675;47.976;7.824;2023-07-20T02:04:53;4.53;;;1.98;;
21032;SDS011;10675;47.976;7.824;2023-07-20T02:07:19;2.58;;;1.77;;
21032;SDS011;10675;47.976;7.824;2023-07-20T02:09:44;4.65;;;2.10;;
21032;SDS011;10675;47.976;7.824;2023-07-20T02:12:10;2.88;;;2.03;;
21032;SDS011;10675;47.976;7.824;2023-07-20T02:14:35;3.67;;;2.20;;
21032;SDS011;10675;47.976;7.824;2023-07-20T02:17:01;2.92;;;1.80;;
21032;SDS011;10675;47.976;7.824;2023-07-20T02:19:26;3.50;;;2.23;;
21032;SDS011;10675;47.976;7.824;2023-07-20T02:21:54;5.13;;;2.15;;
21032;SDS011;10675;47.976;7.824;2023-07-20T02:24:19;2.67;;;1.90;;
21032;SDS011;10675;47.976;7.824;2023-07-20T02:26:45;1.98;;;1.60;;
21032;SDS011;10675;47.976;7.824;2023-07-20T02:29:10;5.93;;;2.15;;
21032;SDS011;10675;47.976;7.824;2023-07-20T02:31:39;2.20;;;2.00;;
21032;SDS011;10675;47.976;7.824;2023-07-20T02:34:07;3.90;;;1.90;;
21032;SDS011;10675;47.976;7.824;2023-07-20T02:36:33;2.13;;;1.92;;
21032;SDS011;10675;47.976;7.824;2023-07-20T02:38:59;3.08;;;1.65;;
21032;SDS011;10675;47.976;7.824;2023-07-20T02:41:27;2.70;;;1.92;;
21032;SDS011;10675;47.976;7.824;2023-07-20T02:43:52;2.85;;;2.28;;
21032;SDS011;10675;47.976;7.824;2023-07-20T02:46:18;2.63;;;2.08;;
21032;SDS011;10675;47.976;7.824;2023-07-20T02:48:43;2.33;;;1.92;;
21032;SDS011;10675;47.976;7.824;2023-07-20T02:51:09;2.50;;;2.10;;
21032;SDS011;10675;47.976;7.824;2023-07-20T02:53:36;3.95;;;2.33;;
21032;SDS011;10675;47.976;7.824;2023-07-20T02:56:01;7.65;;;1.88;;
21032;SDS011;10675;47.976;7.824;2023-07-20T02:58:27;4.53;;;1.80;;
21032;SDS011;10675;47.976;7.824;2023-07-20T03:00:53;4.23;;;2.23;;
21032;SDS011;10675;47.976;7.824;2023-07-20T03:03:18;2.47;;;2.00;;
21032;SDS011;10675;47.976;7.824;2023-07-20T03:05:44;5.43;;;1.93;;
21032;SDS011;10675;47.976;7.824;2023-07-20T03:08:10;1.90;;;1.80;;
21032;SDS011;10675;47.976;7.824;2023-07-20T03:10:39;3.72;;;1.83;;
21032;SDS011;10675;47.976;7.824;2023-07-20T03:13:05;3.35;;;2.35;;
21032;SDS011;10675;47.976;7.824;2023-07-20T03:15:31;1.93;;;1.73;;
21032;SDS011;10675;47.976;7.824;2023-07-20T03:17:57;3.73;;;2.57;;
21032;SDS011;10675;47.976;7.824;2023-07-20T03:20:23;5.57;;;2.10;;
21032;SDS011;10675;47.976;7.824;2023-07-20T03:22:49;4.57;;;2.37;;
21032;SDS011;10675;47.976;7.824;2023-07-20T03:25:14;2.77;;;2.00;;
21032;SDS011;10675;47.976;7.824;2023-07-20T03:27:40;3.30;;;2.00;;
21032;SDS011;10675;47.976;7.824;2023-07-20T03:30:06;2.30;;;2.03;;
21032;SDS011;10675;47.976;7.824;2023-07-20T03:32:32;5.00;;;2.03;;
21032;SDS011;10675;47.976;7.824;2023-07-20T03:34:57;2.83;;;2.10;;
21032;SDS011;10675;47.976;7.824;2023-07-20T03:37:23;2.93;;;2.00;;
21032;SDS011;10675;47.976;7.824;2023-07-20T03:39:49;1.70;;;1.60;;
21032;SDS011;10675;47.976;7.824;2023-07-20T03:42:14;3.90;;;2.07;;
21032;SDS011;10675;47.976;7.824;2023-07-20T03:44:40;2.88;;;2.45;;
21032;SDS011;10675;47.976;7.824;2023-07-20T03:47:05;3.38;;;1.83;;
21032;SDS011;10675;47.976;7.824;2023-07-20T03:49:31;5.60;;;2.07;;
21032;SDS011;10675;47.976;7.824;2023-07-20T03:51:57;3.47;;;2.10;;
21032;SDS011;10675;47.976;7.824;2023-07-20T03:54:22;2.60;;;2.00;;
21032;SDS011;10675;47.976;7.824;2023-07-20T03:56:48;3.10;;;2.00;;
21032;SDS011;10675;47.976;7.824;2023-07-20T03:59:14;3.13;;;2.23;;
21032;SDS011;10675;47.976;7.824;2023-07-20T04:01:39;4.87;;;2.00;;
21032;SDS011;10675;47.976;7.824;2023-07-20T04:04:06;2.17;;;1.93;;
21032;SDS011;10675;47.976;7.824;2023-07-20T04:06:33;2.03;;;1.87;;
21032;SDS011;10675;47.976;7.824;2023-07-20T04:08:58;4.43;;;2.17;;
21032;SDS011;10675;47.976;7.824;2023-07-20T04:11:24;2.97;;;1.77;;
21032;SDS011;10675;47.976;7.824;2023-07-20T04:13:49;3.00;;;1.80;;
21032;SDS011;10675;47.976;7.824;2023-07-20T04:16:15;3.77;;;2.40;;
21032;SDS011;10675;47.976;7.824;2023-07-20T04:18:41;3.30;;;2.27;;
21032;SDS011;10675;47.976;7.824;2023-07-20T04:21:07;4.03;;;1.80;;
21032;SDS011;10675;47.976;7.824;2023-07-20T04:23:34;2.10;;;1.90;;
21032;SDS011;10675;47.976;7.824;2023-07-20T04:26:00;2.95;;;2.08;;
21032;SDS011;10675;47.976;7.824;2023-07-20T04:28:26;2.90;;;2.10;;
21032;SDS011;10675;47.976;7.824;2023-07-20T04:30:52;3.80;;;2.03;;
21032;SDS011;10675;47.976;7.824;2023-07-20T04:33:18;3.80;;;2.47;;
21032;SDS011;10675;47.976;7.824;2023-07-20T04:38:18;3.63;;;2.20;;
21032;SDS011;10675;47.976;7.824;2023-07-20T04:40:45;2.77;;;2.10;;
21032;SDS011;10675;47.976;7.824;2023-07-20T04:43:11;2.40;;;1.90;;
21032;SDS011;10675;47.976;7.824;2023-07-20T04:45:37;3.20;;;2.10;;
21032;SDS011;10675;47.976;7.824;2023-07-20T04:48:05;3.87;;;2.00;;
21032;SDS011;10675;47.976;7.824;2023-07-20T04:50:39;2.97;;;1.97;;
21032;SDS011;10675;47.976;7.824;2023-07-20T04:53:05;2.87;;;2.20;;
21032;SDS011;10675;47.976;7.824;2023-07-20T04:55:31;3.03;;;1.90;;
21032;SDS011;10675;47.976;7.824;2023-07-20T04:57:58;4.30;;;2.00;;
21032;SDS011;10675;47.976;7.824;2023-07-20T05:00:25;2.10;;;1.83;;
21032;SDS011;10675;47.976;7.824;2023-07-20T05:02:51;4.07;;;2.37;;
21032;SDS011;10675;47.976;7.824;2023-07-20T05:05:16;4.10;;;2.20;;
21032;SDS011;10675;47.976;7.824;2023-07-20T05:07:42;2.60;;;2.20;;
21032;SDS011;10675;47.976;7.824;2023-07-20T05:10:07;2.20;;;1.90;;
21032;SDS011;10675;47.976;7.824;2023-07-20T05:12:34;2.30;;;2.10;;
21032;SDS011;10675;47.976;7.824;2023-07-20T05:14:59;2.17;;;1.80;;
21032;SDS011;10675;47.976;7.824;2023-07-20T05:17:24;6.43;;;2.07;;
21032;SDS011;10675;47.976;7.824;2023-07-20T05:19:50;4.63;;;2.37;;
21032;SDS011;10675;47.976;7.824;2023-07-20T05:22:16;4.27;;;2.00;;
21032;SDS011;10675;47.976;7.824;2023-07-20T05:24:41;3.28;;;2.45;;
21032;SDS011;10675;47.976;7.824;2023-07-20T05:27:07;4.57;;;2.20;;
21032;SDS011;10675;47.976;7.824;2023-07-20T05:29:33;3.20;;;2.27;;
21032;SDS011;10675;47.976;7.824;2023-07-20T05:31:58;5.60;;;2.33;;
21032;SDS011;10675;47.976;7.824;2023-07-20T05:34:24;2.87;;;2.27;;
21032;SDS011;10675;47.976;7.824;2023-07-20T05:36:49;3.10;;;2.07;;
21032;SDS011;10675;47.976;7.824;2023-07-20T05:39:16;4.73;;;2.60;;
21032;SDS011;10675;47.976;7.824;2023-07-20T05:41:42;4.17;;;2.27;;
21032;SDS011;10675;47.976;7.824;2023-07-20T05:44:08;3.53;;;2.10;;
21032;SDS011;10675;47.976;7.824;2023-07-20T05:46:33;3.23;;;1.87;;
21032;SDS011;10675;47.976;7.824;2023-07-20T05:48:59;4.88;;;2.30;;
21032;SDS011;10675;47.976;7.824;2023-07-20T05:51:25;2.90;;;2.15;;
21032;SDS011;10675;47.976;7.824;2023-07-20T05:53:50;2.40;;;2.15;;
21032;SDS011;10675;47.976;7.824;2023-07-20T05:56:16;2.45;;;1.95;;
21032;SDS011;10675;47.976;7.824;2023-07-20T05:58:41;3.00;;;2.30;;
21032;SDS011;10675;47.976;7.824;2023-07-20T06:01:07;3.45;;;2.10;;
21032;SDS011;10675;47.976;7.824;2023-07-20T06:03:33;2.20;;;2.00;;
21032;SDS011;10675;47.976;7.824;2023-07-20T06:06:02;5.00;;;2.00;;
21032;SDS011;10675;47.976;7.824;2023-07-20T06:08:29;4.27;;;2.30;;
21032;SDS011;10675;47.976;7.824;2023-07-20T06:10:56;2.20;;;1.97;;
21032;SDS011;10675;47.976;7.824;2023-07-20T06:13:22;2.97;;;2.20;;
21032;SDS011;10675;47.976;7.824;2023-07-20T06:15:48;2.53;;;1.90;;
21032;SDS011;10675;47.976;7.824;2023-07-20T06:18:14;2.75;;;2.28;;
21032;SDS011;10675;47.976;7.824;2023-07-20T06:20:40;2.13;;;1.93;;
21032;SDS011;10675;47.976;7.824;2023-07-20T06:23:05;4.28;;;2.10;;
21032;SDS011;10675;47.976;7.824;2023-07-20T06:25:31;3.25;;;2.08;;
21032;SDS011;10675;47.976;7.824;2023-07-20T06:27:57;5.28;;;2.17;;
21032;SDS011;10675;47.976;7.824;2023-07-20T06:30:22;6.32;;;2.13;;
21032;SDS011;10675;47.976;7.824;2023-07-20T06:32:49;2.15;;;1.90;;
21032;SDS011;10675;47.976;7.824;2023-07-20T06:35:15;2.05;;;1.85;;
21032;SDS011;10675;47.976;7.824;2023-07-20T06:37:41;7.05;;;2.42;;
21032;SDS011;10675;47.976;7.824;2023-07-20T06:40:07;3.38;;;2.40;;
21032;SDS011;10675;47.976;7.824;2023-07-20T06:42:34;4.95;;;2.13;;
21032;SDS011;10675;47.976;7.824;2023-07-20T06:45:00;3.13;;;2.13;;
21032;SDS011;10675;47.976;7.824;2023-07-20T06:47:26;5.65;;;2.35;;
21032;SDS011;10675;47.976;7.824;2023-07-20T06:49:51;2.35;;;1.90;;
21032;SDS011;10675;47.976;7.824;2023-07-20T06:52:17;3.25;;;2.05;;
21032;SDS011;10675;47.976;7.824;2023-07-20T06:54:43;2.38;;;2.00;;
21032;SDS011;10675;47.976;7.824;2023-07-20T06:57:08;5.93;;;2.10;;
21032;SDS011;10675;47.976;7.824;2023-07-20T06:59:34;7.07;;;2.28;;
21032;SDS011;10675;47.976;7.824;2023-07-20T07:01:59;4.18;;;2.08;;
21032;SDS011;10675;47.976;7.824;2023-07-20T07:04:25;2.53;;;2.22;;
21032;SDS011;10675;47.976;7.824;2023-07-20T07:06:50;6.15;;;1.90;;
21032;SDS011;10675;47.976;7.824;2023-07-20T07:09:16;3.10;;;2.30;;
21032;SDS011;10675;47.976;7.824;2023-07-20T07:11:41;3.20;;;2.45;;
21032;SDS011;10675;47.976;7.824;2023-07-20T07:14:07;2.60;;;2.20;;
21032;SDS011;10675;47.976;7.824;2023-07-20T07:16:32;3.47;;;2.50;;
21032;SDS011;10675;47.976;7.824;2023-07-20T07:18:58;3.45;;;2.03;;
21032;SDS011;10675;47.976;7.824;2023-07-20T07:21:24;3.53;;;2.10;;
21032;SDS011;10675;47.976;7.824;2023-07-20T07:23:50;4.00;;;2.20;;
21032;SDS011;10675;47.976;7.824;2023-07-20T07:26:18;5.13;;;2.38;;
21032;SDS011;10675;47.976;7.824;2023-07-20T07:28:44;3.92;;;2.00;;
21032;SDS011;10675;47.976;7.824;2023-07-20T07:31:09;3.47;;;1.88;;
21032;SDS011;10675;47.976;7.824;2023-07-20T07:33:35;2.50;;;2.10;;
21032;SDS011;10675;47.976;7.824;2023-07-20T07:36:01;3.53;;;2.20;;
21032;SDS011;10675;47.976;7.824;2023-07-20T07:38:26;5.28;;;2.15;;
21032;SDS011;10675;47.976;7.824;2023-07-20T07:40:52;2.40;;;2.15;;
21032;SDS011;10675;47.976;7.824;2023-07-20T07:43:17;3.13;;;1.77;;
21032;SDS011;10675;47.976;7.824;2023-07-20T07:45:43;3.55;;;1.98;;
21032;SDS011;10675;47.976;7.824;2023-07-20T07:48:08;2.83;;;1.90;;
21032;SDS011;10675;47.976;7.824;2023-07-20T07:50:36;4.28;;;2.10;;
21032;SDS011;10675;47.976;7.824;2023-07-20T07:53:02;2.30;;;1.92;;
21032;SDS011;10675;47.976;7.824;2023-07-20T07:55:28;5.38;;;2.03;;
21032;SDS011;10675;47.976;7.824;2023-07-20T07:57:53;3.72;;;2.28;;
21032;SDS011;10675;47.976;7.824;2023-07-20T08:00:19;2.10;;;1.90;;
21032;SDS011;10675;47.976;7.824;2023-07-20T08:02:45;3.22;;;2.08;;
21032;SDS011;10675;47.976;7.824;2023-07-20T08:05:14;4.97;;;2.15;;
21032;SDS011;10675;47.976;7.824;2023-07-20T08:07:40;2.17;;;1.80;;
21032;SDS011;10675;47.976;7.824;2023-07-20T08:10:06;3.95;;;2.35;;
21032;SDS011;10675;47.976;7.824;2023-07-20T08:12:32;4.65;;;2.10;;
21032;SDS011;10675;47.976;7.824;2023-07-20T08:14:58;2.97;;;2.30;;
21032;SDS011;10675;47.976;7.824;2023-07-20T08:17:23;7.75;;;2.10;;
21032;SDS011;10675;47.976;7.824;2023-07-20T08:19:49;5.32;;;2.10;;
21032;SDS011;10675;47.976;7.824;2023-07-20T08:22:15;1.92;;;1.77;;
21032;SDS011;10675;47.976;7.824;2023-07-20T08:24:41;2.92;;;2.05;;
21032;SDS011;10675;47.976;7.824;2023-07-20T08:27:07;3.20;;;2.20;;
21032;SDS011;10675;47.976;7.824;2023-07-20T08:29:33;3.08;;;2.20;;
21032;SDS011;10675;47.976;7.824;2023-07-20T08:31:59;3.70;;;2.10;;
21032;SDS011;10675;47.976;7.824;2023-07-20T08:34:25;2.40;;;1.80;;
21032;SDS011;10675;47.976;7.824;2023-07-20T08:36:50;2.83;;;2.00;;
21032;SDS011;10675;47.976;7.824;2023-07-20T08:39:16;2.30;;;2.10;;
21032;SDS011;10675;47.976;7.824;2023-07-20T08:41:46;3.63;;;2.20;;
21032;SDS011;10675;47.976;7.824;2023-07-20T08:44:11;3.80;;;1.90;;
21032;SDS011;10675;47.976;7.824;2023-07-20T08:46:38;2.88;;;1.88;;
21032;SDS011;10675;47.976;7.824;2023-07-20T08:49:05;2.67;;;1.95;;
21032;SDS011;10675;47.976;7.824;2023-07-20T08:51:31;3.38;;;1.90;;
21032;SDS011;10675;47.976;7.824;2023-07-20T08:53:58;2.63;;;1.90;;
21032;SDS011;10675;47.976;7.824;2023-07-20T08:56:25;2.80;;;1.50;;
21032;SDS011;10675;47.976;7.824;2023-07-20T08:58:51;2.97;;;1.70;;
21032;SDS011;10675;47.976;7.824;2023-07-20T09:01:18;3.78;;;1.85;;
21032;SDS011;10675;47.976;7.824;2023-07-20T09:03:45;2.28;;;1.75;;
21032;SDS011;10675;47.976;7.824;2023-07-20T09:06:11;3.05;;;1.85;;
21032;SDS011;10675;47.976;7.824;2023-07-20T09:08:38;3.90;;;1.60;;
21032;SDS011;10675;47.976;7.824;2023-07-20T09:11:05;2.50;;;1.65;;
21032;SDS011;10675;47.976;7.824;2023-07-20T09:13:32;2.78;;;1.85;;
21032;SDS011;10675;47.976;7.824;2023-07-20T09:15:58;1.90;;;1.60;;
21032;SDS011;10675;47.976;7.824;2023-07-20T09:18:28;3.22;;;1.70;;
21032;SDS011;10675;47.976;7.824;2023-07-20T09:21:06;4.18;;;1.58;;
21032;SDS011;10675;47.976;7.824;2023-07-20T09:23:35;1.90;;;1.50;;
21032;SDS011;10675;47.976;7.824;2023-07-20T09:26:12;5.82;;;1.90;;
21032;SDS011;10675;47.976;7.824;2023-07-20T09:28:49;6.00;;;1.80;;
21032;SDS011;10675;47.976;7.824;2023-07-20T09:31:17;1.70;;;1.60;;
21032;SDS011;10675;47.976;7.824;2023-07-20T09:33:44;1.75;;;1.60;;
21032;SDS011;10675;47.976;7.824;2023-07-20T09:36:10;3.17;;;1.98;;
21032;SDS011;10675;47.976;7.824;2023-07-20T09:38:42;1.95;;;1.65;;
21032;SDS011;10675;47.976;7.824;2023-07-20T09:41:08;2.13;;;1.65;;
21032;SDS011;10675;47.976;7.824;2023-07-20T09:43:43;2.05;;;1.67;;
21032;SDS011;10675;47.976;7.824;2023-07-20T09:46:10;2.00;;;1.60;;
21032;SDS011;10675;47.976;7.824;2023-07-20T09:48:35;1.60;;;1.50;;
21032;SDS011;10675;47.976;7.824;2023-07-20T09:51:01;2.78;;;1.73;;
21032;SDS011;10675;47.976;7.824;2023-07-20T09:53:28;2.10;;;1.92;;
21032;SDS011;10675;47.976;7.824;2023-07-20T09:55:54;1.88;;;1.50;;
21032;SDS011;10675;47.976;7.824;2023-07-20T09:58:21;2.83;;;1.50;;
21032;SDS011;10675;47.976;7.824;2023-07-20T10:00:46;3.08;;;1.38;;
21032;SDS011;10675;47.976;7.824;2023-07-20T10:03:18;2.15;;;1.90;;
21032;SDS011;10675;47.976;7.824;2023-07-20T10:05:46;1.70;;;1.60;;
21032;SDS011;10675;47.976;7.824;2023-07-20T10:08:16;3.20;;;1.80;;
21032;SDS011;10675;47.976;7.824;2023-07-20T10:10:43;2.97;;;1.50;;
21032;SDS011;10675;47.976;7.824;2023-07-20T10:13:19;1.50;;;1.38;;
21032;SDS011;10675;47.976;7.824;2023-07-20T10:18:30;2.75;;;1.60;;
21032;SDS011;10675;47.976;7.824;2023-07-20T10:21:03;3.15;;;1.48;;
21032;SDS011;10675;47.976;7.824;2023-07-20T10:23:32;2.28;;;1.85;;
21032;SDS011;10675;47.976;7.824;2023-07-20T10:25:59;2.35;;;1.70;;
21032;SDS011;10675;47.976;7.824;2023-07-20T10:28:26;1.60;;;1.50;;
21032;SDS011;10675;47.976;7.824;2023-07-20T10:30:52;2.42;;;1.77;;
21032;SDS011;10675;47.976;7.824;2023-07-20T10:33:18;2.97;;;1.73;;
21032;SDS011;10675;47.976;7.824;2023-07-20T10:35:59;4.43;;;1.70;;
21032;SDS011;10675;47.976;7.824;2023-07-20T10:44:08;2.15;;;1.40;;
21032;SDS011;10675;47.976;7.824;2023-07-20T10:49:04;2.30;;;1.58;;
21032;SDS011;10675;47.976;7.824;2023-07-20T10:51:38;1.95;;;1.65;;
21032;SDS011;10675;47.976;7.824;2023-07-20T10:56:43;2.67;;;1.70;;
21032;SDS011;10675;47.976;7.824;2023-07-20T11:01:54;1.70;;;1.60;;
21032;SDS011;10675;47.976;7.824;2023-07-20T11:04:44;2.25;;;1.48;;
21032;SDS011;10675;47.976;7.824;2023-07-20T11:07:15;2.13;;;1.30;;
21032;SDS011;10675;47.976;7.824;2023-07-20T11:09:41;1.40;;;1.30;;
21032;SDS011;10675;47.976;7.824;2023-07-20T11:12:11;1.95;;;1.40;;
21032;SDS011;10675;47.976;7.824;2023-07-20T11:14:41;4.53;;;1.55;;
21032;SDS011;10675;47.976;7.824;2023-07-20T11:17:12;2.03;;;1.52;;
21032;SDS011;10675;47.976;7.824;2023-07-20T11:19:38;3.63;;;1.70;;
21032;SDS011;10675;47.976;7.824;2023-07-20T11:22:06;1.63;;;1.42;;
21032;SDS011;10675;47.976;7.824;2023-07-20T11:24:33;1.67;;;1.42;;
21032;SDS011;10675;47.976;7.824;2023-07-20T11:26:58;2.15;;;1.48;;
21032;SDS011;10675;47.976;7.824;2023-07-20T11:29:25;1.50;;;1.40;;
21032;SDS011;10675;47.976;7.824;2023-07-20T11:31:51;1.55;;;1.45;;
21032;SDS011;10675;47.976;7.824;2023-07-20T11:34:17;1.70;;;1.60;;
21032;SDS011;10675;47.976;7.824;2023-07-20T11:36:45;1.98;;;1.40;;
21032;SDS011;10675;47.976;7.824;2023-07-20T11:39:13;1.73;;;1.60;;
21032;SDS011;10675;47.976;7.824;2023-07-20T11:41:43;5.50;;;1.73;;
21032;SDS011;10675;47.976;7.824;2023-07-20T11:44:11;5.05;;;1.63;;
21032;SDS011;10675;47.976;7.824;2023-07-20T11:46:38;3.33;;;1.55;;
21032;SDS011;10675;47.976;7.824;2023-07-20T11:49:04;2.25;;;1.67;;
21032;SDS011;10675;47.976;7.824;2023-07-20T11:51:30;3.38;;;1.70;;
21032;SDS011;10675;47.976;7.824;2023-07-20T11:53:57;2.00;;;1.52;;
21032;SDS011;10675;47.976;7.824;2023-07-20T11:56:25;2.75;;;1.48;;
21032;SDS011;10675;47.976;7.824;2023-07-20T11:58:54;2.00;;;1.58;;
21032;SDS011;10675;47.976;7.824;2023-07-20T12:01:21;1.65;;;1.50;;
21032;SDS011;10675;47.976;7.824;2023-07-20T12:03:48;1.85;;;1.30;;
21032;SDS011;10675;47.976;7.824;2023-07-20T12:06:14;2.47;;;1.60;;
21032;SDS011;10675;47.976;7.824;2023-07-20T12:08:43;2.17;;;1.50;;
21032;SDS011;10675;47.976;7.824;2023-07-20T12:11:09;2.65;;;1.77;;
21032;SDS011;10675;47.976;7.824;2023-07-20T12:13:36;2.95;;;1.83;;
21032;SDS011;10675;47.976;7.824;2023-07-20T12:16:09;3.63;;;1.88;;
21032;SDS011;10675;47.976;7.824;2023-07-20T12:18:35;2.10;;;1.63;;
21032;SDS011;10675;47.976;7.824;2023-07-20T12:21:01;1.85;;;1.50;;
21032;SDS011;10675;47.976;7.824;2023-07-20T12:23:34;4.05;;;1.52;;
21032;SDS011;10675;47.976;7.824;2023-07-20T12:26:01;2.28;;;1.40;;
21032;SDS011;10675;47.976;7.824;2023-07-20T12:28:28;2.38;;;1.73;;
21032;SDS011;10675;47.976;7.824;2023-07-20T12:30:54;2.15;;;1.60;;
21032;SDS011;10675;47.976;7.824;2023-07-20T12:33:23;1.60;;;1.50;;
21032;SDS011;10675;47.976;7.824;2023-07-20T12:35:49;2.67;;;1.70;;
21032;SDS011;10675;47.976;7.824;2023-07-20T12:38:15;3.65;;;1.50;;
21032;SDS011;10675;47.976;7.824;2023-07-20T12:40:41;2.70;;;1.70;;
21032;SDS011;10675;47.976;7.824;2023-07-20T12:43:07;4.28;;;1.50;;
21032;SDS011;10675;47.976;7.824;2023-07-20T12:45:33;2.28;;;1.50;;
21032;SDS011;10675;47.976;7.824;2023-07-20T12:47:58;2.22;;;1.50;;
21032;SDS011;10675;47.976;7.824;2023-07-20T12:50:24;2.08;;;1.83;;
21032;SDS011;10675;47.976;7.824;2023-07-20T12:52:50;2.83;;;1.30;;
21032;SDS011;10675;47.976;7.824;2023-07-20T12:55:15;2.53;;;1.75;;
21032;SDS011;10675;47.976;7.824;2023-07-20T12:57:41;5.30;;;1.65;;
21032;SDS011;10675;47.976;7.824;2023-07-20T13:00:08;4.10;;;1.50;;
21032;SDS011;10675;47.976;7.824;2023-07-20T13:02:35;1.63;;;1.52;;
21032;SDS011;10675;47.976;7.824;2023-07-20T13:05:03;1.60;;;1.50;;
21032;SDS011;10675;47.976;7.824;2023-07-20T13:07:32;2.50;;;1.52;;
21032;SDS011;10675;47.976;7.824;2023-07-20T13:10:02;3.28;;;1.45;;
21032;SDS011;10675;47.976;7.824;2023-07-20T13:12:30;1.85;;;1.55;;
21032;SDS011;10675;47.976;7.824;2023-07-20T13:14:57;2.33;;;1.58;;
21032;SDS011;10675;47.976;7.824;2023-07-20T13:17:25;3.67;;;1.63;;
21032;SDS011;10675;47.976;7.824;2023-07-20T13:19:52;2.33;;;1.35;;
21032;SDS011;10675;47.976;7.824;2023-07-20T13:22:18;5.72;;;1.80;;
21032;SDS011;10675;47.976;7.824;2023-07-20T13:24:47;1.40;;;1.30;;
21032;SDS011;10675;47.976;7.824;2023-07-20T13:27:13;1.52;;;1.42;;
21032;SDS011;10675;47.976;7.824;2023-07-20T13:29:43;1.98;;;1.77;;
21032;SDS011;10675;47.976;7.824;2023-07-20T13:32:08;2.38;;;1.65;;
21032;SDS011;10675;47.976;7.824;2023-07-20T13:34:34;1.50;;;1.20;;
21032;SDS011;10675;47.976;7.824;2023-07-20T13:37:00;2.22;;;1.25;;
21032;SDS011;10675;47.976;7.824;2023-07-20T13:39:26;4.10;;;1.48;;
21032;SDS011;10675;47.976;7.824;2023-07-20T13:41:52;1.50;;;1.40;;
21032;SDS011;10675;47.976;7.824;2023-07-20T13:44:19;1.60;;;1.50;;
21032;SDS011;10675;47.976;7.824;2023-07-20T13:46:45;4.65;;;1.60;;
21032;SDS011;10675;47.976;7.824;2023-07-20T13:49:11;3.17;;;1.60;;
21032;SDS011;10675;47.976;7.824;2023-07-20T13:51:37;1.60;;;1.50;;
21032;SDS011;10675;47.976;7.824;2023-07-20T13:54:03;1.50;;;1.27;;
21032;SDS011;10675;47.976;7.824;2023-07-20T13:56:28;2.60;;;1.40;;
21032;SDS011;10675;47.976;7.824;2023-07-20T13:58:54;2.65;;;1.58;;
21032;SDS011;10675;47.976;7.824;2023-07-20T14:01:20;1.52;;;1.42;;
21032;SDS011;10675;47.976;7.824;2023-07-20T14:03:48;2.35;;;1.55;;
21032;SDS011;10675;47.976;7.824;2023-07-20T14:06:13;3.50;;;1.52;;
21032;SDS011;10675;47.976;7.824;2023-07-20T14:08:39;1.98;;;1.60;;
21032;SDS011;10675;47.976;7.824;2023-07-20T14:11:06;3.47;;;1.23;;
21032;SDS011;10675;47.976;7.824;2023-07-20T14:13:31;3.50;;;1.65;;
21032;SDS011;10675;47.976;7.824;2023-07-20T14:15:57;4.40;;;1.50;;
21032;SDS011;10675;47.976;7.824;2023-07-20T14:18:23;2.42;;;1.60;;
21032;SDS011;10675;47.976;7.824;2023-07-20T14:20:48;2.55;;;1.55;;
21032;SDS011;10675;47.976;7.824;2023-07-20T14:23:14;1.70;;;1.20;;
21032;SDS011;10675;47.976;7.824;2023-07-20T14:25:40;3.55;;;1.60;;
21032;SDS011;10675;47.976;7.824;2023-07-20T14:28:06;2.10;;;1.55;;
21032;SDS011;10675;47.976;7.824;2023-07-20T14:30:32;1.35;;;1.20;;
21032;SDS011;10675;47.976;7.824;2023-07-20T14:32:57;3.03;;;1.50;;
21032;SDS011;10675;47.976;7.824;2023-07-20T14:35:23;2.67;;;1.42;;
21032;SDS011;10675;47.976;7.824;2023-07-20T14:37:49;2.85;;;1.75;;
21032;SDS011;10675;47.976;7.824;2023-07-20T14:40:15;2.75;;;1.77;;
21032;SDS011;10675;47.976;7.824;2023-07-20T14:42:41;3.17;;;1.35;;
21032;SDS011;10675;47.976;7.824;2023-07-20T14:45:06;1.77;;;1.27;;
21032;SDS011;10675;47.976;7.824;2023-07-20T14:47:33;3.30;;;1.77;;
21032;SDS011;10675;47.976;7.824;2023-07-20T14:50:00;2.83;;;1.75;;
21032;SDS011;10675;47.976;7.824;2023-07-20T14:52:27;1.67;;;1.45;;
21032;SDS011;10675;47.976;7.824;2023-07-20T14:54:53;3.65;;;1.50;;
21032;SDS011;10675;47.976;7.824;2023-07-20T14:57:19;3.35;;;1.55;;
21032;SDS011;10675;47.976;7.824;2023-07-20T14:59:45;2.67;;;1.40;;
21032;SDS011;10675;47.976;7.824;2023-07-20T15:02:11;2.88;;;1.67;;
21032;SDS011;10675;47.976;7.824;2023-07-20T15:04:37;1.50;;;1.40;;
21032;SDS011;10675;47.976;7.824;2023-07-20T15:07:10;1.92;;;1.65;;
21032;SDS011;10675;47.976;7.824;2023-07-20T15:09:36;1.35;;;1.25;;
21032;SDS011;10675;47.976;7.824;2023-07-20T15:12:02;2.90;;;1.63;;
21032;SDS011;10675;47.976;7.824;2023-07-20T15:14:27;1.30;;;1.30;;
21032;SDS011;10675;47.976;7.824;2023-07-20T15:16:53;1.65;;;1.45;;
21032;SDS011;10675;47.976;7.824;2023-07-20T15:19:18;2.15;;;1.55;;